This is the latest recevied weather packets stored in our database for station/object KE7JVX-3. If no packets are shown the sender has not sent any weather packets the latest 1 day(s).
| Time | Temp. | Humidity | Pressure | Rain* | Wind** | Luminosity | Snow |
|---|---|---|---|---|---|---|---|
| 1836274739 | 13.89° C | 58% | 1016.3 hPa | 0 mm | 0.89 m/s, 199° | - | - |
| 1836274141 | 13.89° C | 59% | 1016.2 hPa | 0 mm | 1.34 m/s, 204° | - | - |
| 1778071468 | 0° C | 56% | 1009.5 hPa | 0 mm | 4.02 m/s, 311° | - | - |
| 1778070868 | 0° C | 57% | 1009.5 hPa | 0 mm | 4.02 m/s, 309° | - | - |
| 1778070268 | 0.56° C | 56% | 1009.3 hPa | 0 mm | 4.47 m/s, 306° | - | - |
| 1778069668 | 0° C | 57% | 1009.3 hPa | 0 mm | 4.47 m/s, 314° | - | - |
| 1778069068 | 0° C | 58% | 1009.2 hPa | 0 mm | 4.02 m/s, 309° | - | - |
| 1778068468 | 0° C | 57% | 1009.2 hPa | 0 mm | 4.47 m/s, 302° | - | - |
| 1778068078 | 0° C | 58% | 1009.4 hPa | 0 mm | 4.02 m/s, 309° | - | - |
| 1778067868 | 0° C | 58% | 1009.4 hPa | 0 mm | 4.02 m/s, 309° | - | - |
| 1778067399 | 0° C | 57% | 1009.2 hPa | 0 mm | 4.02 m/s, 304° | - | - |
| 1778067268 | 0° C | 57% | 1009.2 hPa | 0 mm | 4.02 m/s, 304° | - | - |
| 1778066668 | 0° C | 58% | 1009.2 hPa | 0 mm | 4.02 m/s, 300° | - | - |
| 1778066146 | 0° C | 57% | 1009.2 hPa | 0 mm | 4.92 m/s, 300° | - | - |
| 1778066068 | 0° C | 57% | 1009.2 hPa | 0 mm | 4.92 m/s, 300° | - | - |
| 1778065539 | 0.56° C | 57% | 1009.1 hPa | 0 mm | 4.92 m/s, 300° | - | - |
| 1778065468 | 0.56° C | 57% | 1009.1 hPa | 0 mm | 4.92 m/s, 300° | - | - |
| 1778064873 | 0.56° C | 58% | 1009.1 hPa | 0 mm | 4.47 m/s, 294° | - | - |
| 1778064269 | 0.56° C | 57% | 1009.1 hPa | 0 mm | 4.92 m/s, 302° | - | - |
| 1778063669 | 0.56° C | 57% | 1009 hPa | 0 mm | 4.47 m/s, 296° | - | - |
| 1778063068 | 0.56° C | 57% | 1008.9 hPa | 0 mm | 4.92 m/s, 302° | - | - |
| 1778062470 | 0.56° C | 57% | 1008.9 hPa | 0 mm | 5.36 m/s, 298° | - | - |
| 1778061868 | 0.56° C | 57% | 1008.8 hPa | 0 mm | 4.92 m/s, 293° | - | - |
| 1778061390 | 0.56° C | 57% | 1008.7 hPa | 0 mm | 6.71 m/s, 287° | - | - |
| 1778061268 | 0.56° C | 57% | 1008.7 hPa | 0 mm | 6.71 m/s, 287° | - | - |
* Rain latest hour (hover to see other rain measurements)
** Current wind speed in m/s (hover to see current wind gust speed)